createdAt,value
2022-12-14T00:02:06.655Z,5.93
2022-12-14T00:04:35.282Z,5.57
2022-12-14T00:07:03.791Z,5.47
2022-12-14T00:09:32.322Z,5.45
2022-12-14T00:12:00.839Z,6.00
2022-12-14T00:14:29.399Z,4.93
2022-12-14T00:16:57.856Z,5.25
2022-12-14T00:19:27.666Z,4.47
2022-12-14T00:21:56.154Z,5.18
2022-12-14T00:24:24.662Z,4.00
2022-12-14T00:26:53.170Z,4.25
2022-12-14T00:29:21.348Z,3.95
2022-12-14T00:31:51.095Z,4.65
2022-12-14T00:34:19.359Z,3.50
2022-12-14T00:36:48.918Z,4.32
2022-12-14T00:39:17.589Z,3.95
2022-12-14T00:41:46.128Z,4.38
2022-12-14T00:44:14.348Z,3.92
2022-12-14T00:46:42.647Z,3.63
2022-12-14T00:49:11.867Z,4.47
2022-12-14T00:51:40.071Z,4.05
2022-12-14T00:54:09.875Z,4.50
2022-12-14T00:56:38.286Z,3.55
2022-12-14T00:59:06.805Z,3.58
2022-12-14T01:01:35.637Z,3.33
2022-12-14T01:04:18.224Z,3.20
2022-12-14T01:06:47.639Z,4.20
2022-12-14T01:09:18.196Z,3.88
2022-12-14T01:11:47.413Z,3.65
2022-12-14T01:14:19.436Z,3.13
2022-12-14T01:16:47.970Z,4.45
2022-12-14T01:19:16.999Z,2.97
2022-12-14T01:21:45.718Z,3.72
2022-12-14T01:24:14.207Z,3.70
2022-12-14T01:26:43.820Z,3.20
2022-12-14T01:29:12.903Z,4.85
2022-12-14T01:31:41.487Z,2.80
2022-12-14T01:34:10.473Z,3.88
2022-12-14T01:36:40.335Z,4.25
2022-12-14T01:39:13.601Z,3.40
2022-12-14T01:41:46.678Z,3.27
2022-12-14T01:44:57.028Z,3.33
2022-12-14T01:47:42.004Z,3.55
2022-12-14T01:50:21.338Z,2.78
2022-12-14T01:52:52.135Z,2.58
2022-12-14T01:55:24.906Z,3.55
2022-12-14T01:58:00.518Z,2.95
2022-12-14T02:00:29.184Z,2.78
2022-12-14T02:03:02.610Z,3.55
2022-12-14T02:05:34.876Z,3.95
2022-12-14T02:08:06.085Z,3.30
2022-12-14T02:10:34.670Z,3.25
2022-12-14T02:13:14.604Z,3.15
2022-12-14T02:15:44.413Z,3.88
2022-12-14T02:18:18.884Z,4.22
2022-12-14T02:21:06.416Z,3.55
2022-12-14T02:24:20.723Z,4.00
2022-12-14T02:27:24.386Z,2.95
2022-12-14T02:30:04.586Z,2.63
2022-12-14T02:33:34.392Z,2.72
2022-12-14T02:36:10.173Z,2.58
2022-12-14T02:38:54.511Z,3.75
2022-12-14T02:41:38.166Z,2.95
2022-12-14T02:44:18.220Z,3.67
2022-12-14T02:46:57.514Z,3.08
2022-12-14T02:49:51.021Z,4.22
2022-12-14T02:52:38.305Z,2.72
2022-12-14T02:55:14.092Z,3.50
2022-12-14T02:57:47.803Z,3.90
2022-12-14T03:00:17.270Z,3.83
2022-12-14T03:02:49.601Z,4.00
2022-12-14T03:05:18.579Z,3.85
2022-12-14T03:07:50.980Z,3.58
2022-12-14T03:10:28.375Z,4.65
2022-12-14T03:13:02.412Z,4.13
2022-12-14T03:15:32.447Z,4.32
2022-12-14T03:18:06.777Z,4.13
2022-12-14T03:23:10.025Z,3.13
2022-12-14T03:25:45.914Z,2.93
2022-12-14T03:28:23.320Z,3.75
2022-12-14T03:31:06.878Z,4.40
2022-12-14T03:33:39.692Z,3.45
2022-12-14T03:36:15.702Z,3.45
2022-12-14T03:38:46.547Z,3.22
2022-12-14T03:41:23.599Z,4.47
2022-12-14T03:44:09.239Z,4.22
2022-12-14T03:46:48.499Z,4.03
2022-12-14T03:49:28.338Z,3.90
2022-12-14T03:52:04.503Z,4.32
2022-12-14T03:54:48.040Z,3.40
2022-12-14T03:57:29.811Z,3.33
2022-12-14T04:00:06.314Z,3.88
2022-12-14T04:02:50.116Z,3.58
2022-12-14T04:05:27.682Z,3.97
2022-12-14T04:08:06.813Z,4.28
2022-12-14T04:10:58.919Z,3.45
2022-12-14T04:13:53.632Z,4.05
2022-12-14T04:16:46.438Z,3.08
2022-12-14T04:19:23.808Z,3.40
2022-12-14T04:21:57.836Z,3.25
2022-12-14T04:24:55.915Z,7.03
2022-12-14T04:27:33.928Z,9.75
2022-12-14T04:30:03.614Z,6.30
2022-12-14T04:32:36.703Z,5.13
2022-12-14T04:35:13.322Z,4.13
2022-12-14T04:37:49.089Z,4.32
2022-12-14T04:40:23.119Z,3.80
2022-12-14T04:42:56.650Z,3.40
2022-12-14T04:45:29.948Z,4.10
2022-12-14T04:48:09.970Z,4.38
2022-12-14T04:50:45.478Z,4.90
2022-12-14T04:53:19.276Z,4.45
2022-12-14T04:55:53.111Z,5.80
2022-12-14T04:58:26.763Z,5.28
2022-12-14T05:01:12.997Z,4.38
2022-12-14T05:03:52.371Z,4.78
2022-12-14T05:06:27.559Z,5.25
2022-12-14T05:09:19.415Z,3.60
2022-12-14T05:11:54.976Z,3.90
2022-12-14T05:14:31.766Z,4.10
2022-12-14T05:17:05.022Z,4.25
2022-12-14T05:19:36.711Z,3.38
2022-12-14T05:22:08.882Z,4.15
2022-12-14T05:24:38.536Z,5.35
2022-12-14T05:27:07.733Z,4.65
2022-12-14T05:29:36.271Z,4.95
2022-12-14T05:32:05.243Z,3.88
2022-12-14T05:34:34.135Z,4.35
2022-12-14T05:37:02.688Z,5.25
2022-12-14T05:39:30.957Z,4.97
2022-12-14T05:42:00.493Z,5.10
2022-12-14T05:44:29.055Z,4.80
2022-12-14T05:46:57.555Z,7.35
2022-12-14T05:49:26.301Z,5.47
2022-12-14T05:51:54.948Z,5.53
2022-12-14T05:54:23.559Z,5.53
2022-12-14T05:56:52.459Z,4.97
2022-12-14T05:59:22.257Z,6.35
2022-12-14T06:01:51.562Z,8.05
2022-12-14T06:04:20.461Z,8.65
2022-12-14T06:06:50.119Z,7.78
2022-12-14T06:09:19.459Z,6.75
2022-12-14T06:11:49.260Z,6.10
2022-12-14T06:14:18.551Z,4.47
2022-12-14T06:16:48.613Z,5.47
2022-12-14T06:19:16.959Z,5.95
2022-12-14T06:21:45.825Z,5.90
2022-12-14T06:24:14.858Z,6.35
2022-12-14T06:26:43.535Z,5.93
2022-12-14T06:29:16.898Z,6.85
2022-12-14T06:31:49.359Z,6.57
2022-12-14T06:34:22.360Z,6.43
2022-12-14T06:36:52.046Z,5.82
2022-12-14T06:39:20.555Z,6.50
2022-12-14T06:41:51.664Z,6.70
2022-12-14T06:44:20.535Z,6.68
2022-12-14T06:46:50.290Z,6.63
2022-12-14T06:49:18.812Z,5.68
2022-12-14T06:51:47.429Z,5.25
2022-12-14T06:54:17.843Z,6.70
2022-12-14T06:56:47.816Z,7.32
2022-12-14T06:59:17.390Z,4.75
2022-12-14T07:01:50.165Z,8.48
2022-12-14T07:04:21.649Z,6.20
2022-12-14T07:06:50.884Z,5.97
2022-12-14T07:09:19.949Z,5.93
2022-12-14T07:11:52.026Z,7.15
2022-12-14T07:14:20.674Z,6.50
2022-12-14T07:16:49.242Z,5.47
2022-12-14T07:19:20.365Z,7.63
2022-12-14T07:21:49.011Z,6.20
2022-12-14T07:24:18.455Z,6.82
2022-12-14T07:26:47.365Z,6.72
2022-12-14T07:29:16.852Z,8.35
2022-12-14T07:31:45.293Z,6.65
2022-12-14T07:34:19.796Z,6.25
2022-12-14T07:36:51.553Z,7.20
2022-12-14T07:39:20.511Z,5.85
2022-12-14T07:41:50.504Z,8.05
2022-12-14T07:44:22.684Z,7.47
2022-12-14T07:46:51.319Z,9.13
2022-12-14T07:49:21.591Z,7.30
2022-12-14T07:51:50.531Z,7.90
2022-12-14T07:54:19.152Z,8.43
2022-12-14T07:56:47.730Z,8.43
2022-12-14T07:59:18.024Z,7.63
2022-12-14T08:01:46.999Z,9.63
2022-12-14T08:04:18.373Z,12.57
2022-12-14T08:06:49.249Z,12.68
2022-12-14T08:09:20.109Z,12.75
2022-12-14T08:11:48.803Z,10.95
2022-12-14T08:14:19.328Z,10.00
2022-12-14T08:16:49.682Z,8.57
2022-12-14T08:19:19.352Z,8.70
2022-12-14T08:21:49.010Z,8.43
2022-12-14T08:24:17.801Z,8.82
2022-12-14T08:26:49.016Z,8.70
2022-12-14T08:29:18.952Z,7.95
2022-12-14T08:31:47.678Z,8.27
2022-12-14T08:34:21.843Z,7.80
2022-12-14T08:36:51.683Z,8.32
2022-12-14T08:39:20.273Z,9.88
2022-12-14T08:41:48.791Z,10.15
2022-12-14T08:44:18.771Z,9.38
2022-12-14T08:46:47.765Z,8.18
2022-12-14T08:49:16.308Z,6.32
2022-12-14T08:51:44.847Z,9.13
2022-12-14T08:54:14.396Z,10.65
2022-12-14T08:56:42.911Z,11.20
2022-12-14T08:59:29.913Z,8.20
2022-12-14T09:02:00.138Z,8.55
2022-12-14T09:04:28.671Z,8.88
2022-12-14T09:06:57.412Z,10.68
2022-12-14T09:09:27.211Z,8.48
2022-12-14T09:11:55.782Z,8.18
2022-12-14T09:14:24.029Z,10.73
2022-12-14T09:16:52.361Z,8.57
2022-12-14T09:19:20.600Z,10.15
2022-12-14T09:21:48.947Z,9.95
2022-12-14T09:24:17.496Z,10.40
2022-12-14T09:26:47.524Z,11.73
2022-12-14T09:29:17.657Z,12.82
2022-12-14T09:31:46.447Z,13.13
2022-12-14T09:34:15.020Z,12.00
2022-12-14T09:36:43.535Z,11.57
2022-12-14T09:39:14.829Z,12.07
2022-12-14T09:42:13.649Z,13.27
2022-12-14T09:44:57.351Z,11.98
2022-12-14T09:47:32.549Z,12.45
2022-12-14T09:50:05.446Z,12.77
2022-12-14T09:52:41.805Z,10.10
2022-12-14T09:55:21.164Z,11.32
2022-12-14T09:57:57.324Z,11.68
2022-12-14T10:00:26.665Z,14.68
2022-12-14T10:03:18.239Z,12.75
2022-12-14T10:06:08.271Z,11.32
2022-12-14T10:08:42.960Z,12.27
2022-12-14T10:11:33.227Z,11.57
2022-12-14T10:14:14.201Z,10.40
2022-12-14T10:16:52.729Z,12.10
2022-12-14T10:19:36.067Z,10.63
2022-12-14T10:22:12.522Z,12.18
2022-12-14T10:24:46.102Z,12.15
2022-12-14T10:27:23.761Z,12.52
2022-12-14T10:30:01.332Z,12.45
2022-12-14T10:32:36.313Z,17.23
2022-12-14T10:35:15.564Z,15.70
2022-12-14T10:37:46.950Z,12.52
2022-12-14T10:40:33.707Z,13.40
2022-12-14T10:43:27.228Z,13.10
2022-12-14T10:46:14.540Z,13.05
2022-12-14T10:48:54.447Z,14.55
2022-12-14T10:51:31.378Z,11.25
2022-12-14T10:54:11.178Z,13.52
2022-12-14T10:56:43.240Z,11.55
2022-12-14T10:59:39.604Z,10.68
2022-12-14T11:02:17.126Z,11.10
2022-12-14T11:04:51.402Z,14.23
2022-12-14T11:07:22.730Z,10.52
2022-12-14T11:09:51.210Z,10.38
2022-12-14T11:12:24.228Z,12.63
2022-12-14T11:14:56.675Z,10.82
2022-12-14T11:17:36.080Z,10.60
2022-12-14T11:20:18.426Z,9.73
2022-12-14T11:22:50.321Z,11.70
2022-12-14T11:25:39.008Z,11.00
2022-12-14T11:28:36.146Z,12.10
2022-12-14T11:31:11.829Z,8.35
2022-12-14T11:33:49.937Z,10.23
2022-12-14T11:36:27.324Z,10.48
2022-12-14T11:38:57.315Z,9.52
2022-12-14T11:41:29.013Z,10.60
2022-12-14T11:44:07.289Z,10.52
2022-12-14T11:46:48.506Z,10.13
2022-12-14T11:49:28.070Z,8.07
2022-12-14T11:52:10.266Z,8.90
2022-12-14T11:54:41.121Z,11.00
2022-12-14T11:57:24.251Z,8.93
2022-12-14T11:59:56.427Z,8.85
2022-12-14T12:02:30.125Z,9.38
2022-12-14T12:05:06.571Z,9.82
2022-12-14T12:07:37.284Z,11.32
2022-12-14T12:10:19.316Z,10.93
2022-12-14T12:12:54.106Z,9.35
2022-12-14T12:15:26.128Z,9.63
2022-12-14T12:18:00.031Z,9.93
2022-12-14T12:20:38.285Z,9.68
2022-12-14T12:23:15.029Z,9.48
2022-12-14T12:25:45.383Z,9.88
2022-12-14T12:28:19.542Z,9.98
2022-12-14T12:30:54.729Z,9.00
2022-12-14T12:33:31.464Z,8.93
2022-12-14T12:36:05.613Z,8.68
2022-12-14T12:38:50.445Z,9.52
2022-12-14T12:41:34.310Z,11.23
2022-12-14T12:44:18.154Z,9.27
2022-12-14T12:47:23.934Z,9.45
2022-12-14T12:49:49.299Z,9.32
2022-12-14T12:52:25.082Z,12.40
2022-12-14T12:54:59.825Z,13.57
2022-12-14T12:57:37.174Z,14.45
2022-12-14T13:00:07.906Z,13.32
2022-12-14T13:02:39.821Z,15.13
2022-12-14T13:05:45.026Z,13.70
2022-12-14T13:08:13.379Z,10.18
2022-12-14T13:11:02.387Z,12.10
2022-12-14T13:13:36.473Z,11.98
2022-12-14T13:16:13.373Z,12.77
2022-12-14T13:19:04.451Z,9.93
2022-12-14T13:21:38.314Z,10.63
2022-12-14T13:24:16.208Z,11.20
2022-12-14T13:27:36.583Z,8.90
2022-12-14T13:30:23.400Z,9.30
2022-12-14T13:33:10.224Z,9.93
2022-12-14T13:35:54.609Z,9.00
2022-12-14T13:38:43.269Z,10.20
2022-12-14T13:41:27.370Z,8.65
2022-12-14T13:44:33.540Z,9.05
2022-12-14T13:47:07.186Z,9.07
2022-12-14T13:49:36.235Z,8.77
2022-12-14T13:52:05.058Z,8.70
2022-12-14T13:54:39.291Z,8.40
2022-12-14T13:57:14.159Z,7.47
2022-12-14T13:59:47.419Z,6.97
2022-12-14T14:02:41.471Z,7.85
2022-12-14T14:05:46.833Z,8.40
2022-12-14T14:08:39.314Z,7.72
2022-12-14T14:11:58.496Z,6.72
2022-12-14T14:14:45.976Z,6.38
2022-12-14T14:17:24.812Z,8.85
2022-12-14T14:19:57.111Z,6.88
2022-12-14T14:22:28.182Z,8.40
2022-12-14T14:25:00.896Z,7.63
2022-12-14T14:27:36.944Z,8.50
2022-12-14T14:30:27.176Z,8.48
2022-12-14T14:33:07.606Z,6.88
2022-12-14T14:35:42.112Z,8.25
2022-12-14T14:38:25.436Z,8.93
2022-12-14T14:41:16.200Z,8.07
2022-12-14T14:43:52.660Z,7.85
2022-12-14T14:46:39.469Z,7.90
2022-12-14T14:49:22.478Z,7.72
2022-12-14T14:51:51.130Z,8.68
2022-12-14T14:55:15.728Z,7.60
2022-12-14T14:57:55.381Z,7.20
2022-12-14T15:00:24.229Z,7.45
2022-12-14T15:02:55.542Z,8.48
2022-12-14T15:05:44.753Z,6.90
2022-12-14T15:08:20.813Z,7.97
2022-12-14T15:10:51.201Z,8.70
2022-12-14T15:13:25.531Z,8.20
2022-12-14T15:15:56.395Z,7.10
2022-12-14T15:18:30.301Z,7.65
2022-12-14T15:21:04.612Z,7.47
2022-12-14T15:23:37.163Z,6.85
2022-12-14T15:26:16.934Z,8.13
2022-12-14T15:28:50.294Z,7.50
2022-12-14T15:31:21.174Z,7.90
2022-12-14T15:33:50.848Z,8.70
2022-12-14T15:36:20.651Z,8.95
2022-12-14T15:38:53.830Z,9.02
2022-12-14T15:41:25.184Z,9.05
2022-12-14T15:43:59.769Z,6.43
2022-12-14T15:46:31.787Z,8.10
2022-12-14T15:49:04.097Z,7.85
2022-12-14T15:51:36.312Z,8.80
2022-12-14T15:54:08.245Z,8.77
2022-12-14T15:56:39.438Z,9.38
2022-12-14T15:59:18.682Z,9.55
2022-12-14T16:01:54.788Z,8.45
2022-12-14T16:04:29.158Z,10.02
2022-12-14T16:07:08.683Z,11.02
2022-12-14T16:09:42.317Z,11.07
2022-12-14T16:12:20.823Z,10.95
2022-12-14T16:14:54.258Z,11.88
2022-12-14T16:17:29.768Z,9.13
2022-12-14T16:20:02.025Z,10.20
2022-12-14T16:22:31.904Z,8.00
2022-12-14T16:25:19.057Z,9.00
2022-12-14T16:27:50.442Z,8.57
2022-12-14T16:30:23.969Z,9.80
2022-12-14T16:33:04.534Z,8.90
2022-12-14T16:35:37.134Z,10.52
2022-12-14T16:38:13.116Z,10.73
2022-12-14T16:40:44.951Z,11.40
2022-12-14T16:43:32.629Z,9.35
2022-12-14T16:46:18.566Z,9.93
2022-12-14T16:49:22.170Z,10.05
2022-12-14T16:52:07.795Z,9.98
2022-12-14T16:54:39.103Z,9.68
2022-12-14T16:57:18.687Z,9.88
2022-12-14T16:59:49.186Z,10.73
2022-12-14T17:02:31.345Z,10.60
2022-12-14T17:05:03.437Z,9.48
2022-12-14T17:07:34.198Z,8.05
2022-12-14T17:10:02.750Z,10.02
2022-12-14T17:12:31.268Z,11.70
2022-12-14T17:14:59.924Z,11.57
2022-12-14T17:17:36.752Z,9.85
2022-12-14T17:20:11.948Z,12.48
2022-12-14T17:22:43.557Z,14.13
2022-12-14T17:25:18.713Z,8.90
2022-12-14T17:27:47.969Z,9.32
2022-12-14T17:30:21.333Z,8.45
2022-12-14T17:32:50.563Z,8.30
2022-12-14T17:35:22.222Z,11.57
2022-12-14T17:37:52.701Z,10.13
2022-12-14T17:40:21.221Z,8.00
2022-12-14T17:42:54.483Z,8.63
2022-12-14T17:45:25.879Z,7.25
2022-12-14T17:47:54.704Z,7.93
2022-12-14T17:50:24.451Z,8.65
2022-12-14T17:52:54.415Z,8.32
2022-12-14T17:55:25.901Z,10.35
2022-12-14T17:57:55.295Z,10.02
2022-12-14T18:00:43.871Z,9.00
2022-12-14T18:03:13.681Z,9.13
2022-12-14T18:05:48.317Z,8.00
2022-12-14T18:08:19.047Z,9.80
2022-12-14T18:10:49.775Z,8.63
2022-12-14T18:13:18.447Z,8.25
2022-12-14T18:15:50.562Z,8.63
2022-12-14T18:18:19.976Z,8.82
2022-12-14T18:20:54.179Z,9.45
2022-12-14T18:25:54.190Z,5.70
2022-12-14T18:28:23.014Z,8.82
2022-12-14T18:30:55.366Z,9.35
2022-12-14T18:33:26.967Z,8.57
2022-12-14T18:35:57.568Z,8.55
2022-12-14T18:38:27.815Z,8.65
2022-12-14T18:40:58.702Z,10.40
2022-12-14T18:43:29.744Z,7.70
2022-12-14T18:45:59.065Z,8.38
2022-12-14T18:48:27.743Z,7.45
2022-12-14T18:50:57.124Z,8.23
2022-12-14T18:53:27.923Z,7.55
2022-12-14T18:55:57.030Z,8.35
2022-12-14T18:58:28.026Z,8.52
2022-12-14T19:01:00.030Z,8.73
2022-12-14T19:03:32.284Z,6.53
2022-12-14T19:06:34.880Z,8.00
2022-12-14T19:08:56.980Z,5.80
2022-12-14T19:11:33.118Z,6.80
2022-12-14T19:14:02.632Z,7.82
2022-12-14T19:16:31.362Z,9.82
2022-12-14T19:19:00.614Z,9.55
2022-12-14T19:21:31.181Z,10.02
2022-12-14T19:24:01.009Z,9.52
2022-12-14T19:26:30.224Z,8.25
2022-12-14T19:28:58.553Z,8.65
2022-12-14T19:31:27.350Z,10.73
2022-12-14T19:33:55.943Z,13.00
2022-12-14T19:36:25.080Z,12.23
2022-12-14T19:38:53.631Z,10.60
2022-12-14T19:41:24.132Z,10.55
2022-12-14T19:43:52.731Z,10.00
2022-12-14T19:46:21.429Z,11.20
2022-12-14T19:48:50.291Z,9.95
2022-12-14T19:51:21.495Z,9.07
2022-12-14T19:53:49.775Z,11.40
2022-12-14T19:56:19.706Z,8.52
2022-12-14T19:58:49.426Z,10.60
2022-12-14T20:01:18.875Z,12.00
2022-12-14T20:03:48.946Z,11.90
2022-12-14T20:06:17.706Z,12.30
2022-12-14T20:08:49.216Z,16.10
2022-12-14T20:11:18.478Z,14.80
2022-12-14T20:13:51.847Z,20.58
2022-12-14T20:16:25.421Z,21.38
2022-12-14T20:18:54.311Z,17.98
2022-12-14T20:21:23.094Z,21.85
2022-12-14T20:23:51.815Z,16.15
2022-12-14T20:26:22.687Z,17.33
2022-12-14T20:28:54.306Z,9.88
2022-12-14T20:31:23.686Z,13.75
2022-12-14T20:33:52.628Z,11.38
2022-12-14T20:36:22.183Z,11.45
2022-12-14T20:38:55.985Z,9.57
2022-12-14T20:41:25.059Z,9.60
2022-12-14T20:43:54.984Z,9.98
2022-12-14T20:46:27.620Z,7.57
2022-12-14T20:48:57.149Z,8.63
2022-12-14T20:51:25.622Z,6.65
2022-12-14T20:53:54.188Z,6.43
2022-12-14T20:56:22.883Z,6.57
2022-12-14T20:58:51.673Z,5.50
2022-12-14T21:01:22.764Z,5.07
2022-12-14T21:03:52.140Z,4.95
2022-12-14T21:06:24.119Z,5.15
2022-12-14T21:09:09.678Z,5.03
2022-12-14T21:12:00.685Z,3.83
2022-12-14T21:14:32.293Z,3.10
2022-12-14T21:17:03.877Z,4.90
2022-12-14T21:19:33.006Z,3.78
2022-12-14T21:22:02.218Z,3.38
2022-12-14T21:25:01.934Z,4.57
2022-12-14T21:27:21.757Z,4.70
2022-12-14T21:29:51.347Z,5.32
2022-12-14T21:32:21.803Z,3.58
2022-12-14T21:34:50.591Z,5.65
2022-12-14T21:37:20.308Z,4.40
2022-12-14T21:39:54.916Z,4.45
2022-12-14T21:42:23.884Z,4.95
2022-12-14T21:44:55.094Z,6.78
2022-12-14T21:47:27.610Z,6.72
2022-12-14T21:49:56.555Z,6.43
2022-12-14T21:52:27.922Z,7.97
2022-12-14T21:54:58.840Z,9.52
2022-12-14T21:57:49.394Z,10.20
2022-12-14T22:00:18.864Z,8.68
2022-12-14T22:02:48.656Z,8.32
2022-12-14T22:05:17.437Z,7.13
2022-12-14T22:07:46.718Z,8.45
2022-12-14T22:10:18.687Z,10.52
2022-12-14T22:12:49.916Z,7.80
2022-12-14T22:15:18.286Z,10.73
2022-12-14T22:17:49.861Z,10.35
2022-12-14T22:20:18.426Z,9.73
2022-12-14T22:22:46.964Z,10.38
2022-12-14T22:25:15.798Z,9.82
2022-12-14T22:27:44.418Z,12.50
2022-12-14T22:32:48.226Z,5.13
2022-12-14T22:35:18.018Z,7.13
2022-12-14T22:37:46.520Z,11.27
2022-12-14T22:40:15.208Z,11.55
2022-12-14T22:42:43.764Z,10.65
2022-12-14T22:45:12.442Z,10.13
2022-12-14T22:47:40.953Z,11.80
2022-12-14T22:50:11.772Z,11.05
2022-12-14T22:52:40.297Z,9.88
2022-12-14T22:55:10.005Z,11.68
2022-12-14T22:57:44.213Z,12.55
2022-12-14T23:02:48.129Z,6.25
2022-12-14T23:05:19.369Z,10.27
2022-12-14T23:07:48.491Z,10.43
2022-12-14T23:10:34.659Z,10.35
2022-12-14T23:13:20.670Z,10.35
2022-12-14T23:16:06.562Z,9.10
2022-12-14T23:18:53.091Z,8.23
2022-12-14T23:21:40.428Z,9.80
2022-12-14T23:24:26.668Z,8.98
2022-12-14T23:27:12.708Z,8.40
2022-12-14T23:29:58.933Z,9.63
2022-12-14T23:32:45.314Z,15.55
2022-12-14T23:35:31.718Z,11.30
2022-12-14T23:38:23.719Z,8.93
2022-12-14T23:41:10.331Z,9.40
2022-12-14T23:43:56.319Z,8.38
2022-12-14T23:46:41.885Z,8.98
2022-12-14T23:49:28.371Z,8.65
2022-12-14T23:52:14.427Z,8.82
2022-12-14T23:55:01.560Z,10.10
2022-12-14T23:57:47.634Z,10.68
